Acton, California
Current Conditions -  °F | °C
As of 9:53 PM on Friday 28 Nov 2014 (Local Time) from KPMD Reporting Station
Clear Clear  
Wind Chill: 58°   Ceiling: Unl
Heat Index: 58°   Visibility: 10mi
Dew Point: 22°   Wind: 5mph
Humidity: 25%   Direction: 230°SW
Pressure: 29.96"   Gusts: NA
Location:  34.47°N, 118.2°W
Report Text: KPMD 290553Z AUTO 23004KT 10SM CLR 14/M06 A2996 RMK AO2 SLP133 T01441056 10239 20117 56000
Loading
Personal Weather Stations






























Interactive Weather Map New forecast layout! Learn more

10-Day Weather Forecast

Advertisements
Track Severe Weather on mobile